Ulusoy 5 — TCUV — position and weather

sailwx.info

Track history (hours):
 
Tides and Currents Weather Stations Pressure Air Temp Water Temp Dewpoint Dewpoint Depression Visibility Wind Speed Wind Dir Waves Ship Positions

Ulusoy 5

Last reported at 2018-Jun-25 00:40 UTC. Time now 2018-Jun-25 15:54 UTC.
Position N 37°14' E 024°48'.

Length 165 m; draft 7.3 m.

Type: Cargo ship. MMSI: 271000426.

Date/timePositionNaut miles runAvg speedWind from/ knotsBaromVisibWave heightAir tempDewpointWater temp
2018-Jun-25 00:40N 37°14' E 024°48'214.0
2018-Jun-25 00:30N 37°16' E 024°50'714.7
2018-Jun-25 00:01N 37°20' E 024°58'714.9
2018-Jun-24 23:31N 37°24' E 025°05'714.6
2018-Jun-24 23:00N 37°28' E 025°13'915.0
2018-Jun-24 22:26N 37°34' E 025°21'614.3
2018-Jun-24 22:00N 37°39' E 025°26'714.3
2018-Jun-24 21:31N 37°44' E 025°33'714.4
2018-Jun-24 21:00N 37°49' E 025°39'  
2018-Jun-17 15:45N 37°49' E 025°39'514.8
2018-Jun-17 15:24N 37°45' E 025°34'614.9
2018-Jun-17 15:01N 37°41' E 025°29'715.0
2018-Jun-17 14:31N 37°36' E 025°22'714.4
2018-Jun-17 14:00N 37°31' E 025°15'714.7
2018-Jun-17 13:31N 37°27' E 025°08'714.6
2018-Jun-17 13:00N 37°23' E 025°00'714.3
2018-Jun-17 12:31N 37°18' E 024°53'  
2018-Jun-15 08:19N 44°32' E 013°37'413.9
2018-Jun-15 08:00N 44°35' E 013°34'713.9
2018-Jun-15 07:30N 44°41' E 013°29'714.4
2018-Jun-15 07:00N 44°47' E 013°24'714.3
2018-Jun-15 06:30N 44°53' E 013°18'714.2
2018-Jun-15 06:00N 44°59' E 013°12'713.8
2018-Jun-15 05:30N 45°05' E 013°07'713.5
2018-Jun-15 05:00N 45°11' E 013°02'714.1
2018-Jun-15 04:30N 45°18' E 013°00'713.1
2018-Jun-15 04:00N 45°24' E 013°03'714.6
2018-Jun-15 03:30N 45°29' E 013°11'714.4
2018-Jun-15 03:00N 45°34' E 013°18'714.2
2018-Jun-15 02:31N 45°36' E 013°28'713.8
2018-Jun-15 02:00N 45°39' E 013°37'510.4
2018-Jun-15 01:30N 45°38' E 013°44'1 1.8
2018-Jun-15 01:00N 45°38' E 013°46'  
Track history (hours):
 
Tides and Currents Weather Stations Pressure Air Temp Water Temp Dewpoint Dewpoint Depression Visibility Wind Speed Wind Dir Waves Ship Positions

Ulusoy 5

Last reported at 2018-Jun-25 00:40 UTC. Time now 2018-Jun-25 15:54 UTC.
Position N 37°14' E 024°48'.

Length 165 m; draft 7.3 m.

Type: Cargo ship. MMSI: 271000426.

Date/timePositionNaut miles runAvg speedWind from/ knotsBaromVisibWave heightAir tempDewpointWater temp
2018-Jun-25 00:40N 37°14' E 024°48'214.0
2018-Jun-25 00:30N 37°16' E 024°50'714.7
2018-Jun-25 00:01N 37°20' E 024°58'714.9
2018-Jun-24 23:31N 37°24' E 025°05'714.6
2018-Jun-24 23:00N 37°28' E 025°13'915.0
2018-Jun-24 22:26N 37°34' E 025°21'614.3
2018-Jun-24 22:00N 37°39' E 025°26'714.3
2018-Jun-24 21:31N 37°44' E 025°33'714.4
2018-Jun-24 21:00N 37°49' E 025°39'  
2018-Jun-17 15:45N 37°49' E 025°39'514.8
2018-Jun-17 15:24N 37°45' E 025°34'614.9
2018-Jun-17 15:01N 37°41' E 025°29'715.0
2018-Jun-17 14:31N 37°36' E 025°22'714.4
2018-Jun-17 14:00N 37°31' E 025°15'714.7
2018-Jun-17 13:31N 37°27' E 025°08'714.6
2018-Jun-17 13:00N 37°23' E 025°00'714.3
2018-Jun-17 12:31N 37°18' E 024°53'  
2018-Jun-15 08:19N 44°32' E 013°37'413.9
2018-Jun-15 08:00N 44°35' E 013°34'713.9
2018-Jun-15 07:30N 44°41' E 013°29'714.4
2018-Jun-15 07:00N 44°47' E 013°24'714.3
2018-Jun-15 06:30N 44°53' E 013°18'714.2
2018-Jun-15 06:00N 44°59' E 013°12'713.8
2018-Jun-15 05:30N 45°05' E 013°07'713.5
2018-Jun-15 05:00N 45°11' E 013°02'714.1
2018-Jun-15 04:30N 45°18' E 013°00'713.1
2018-Jun-15 04:00N 45°24' E 013°03'714.6
2018-Jun-15 03:30N 45°29' E 013°11'714.4
2018-Jun-15 03:00N 45°34' E 013°18'714.2
2018-Jun-15 02:31N 45°36' E 013°28'713.8
2018-Jun-15 02:00N 45°39' E 013°37'510.4
2018-Jun-15 01:30N 45°38' E 013°44'1 1.8
2018-Jun-15 01:00N 45°38' E 013°46'  

Dump ship's entire track history